Bei Facebook empfehlenBei Twitter postenGoogle plusPinterest

Das Wetter im Erzgebirge am 21.07.2016

Wetter und Klima am 21.07.2016 Holzhau im Erzgebirge (630m ü.NN)
Letzte gemessene Temperatur und Uhrzeit der Messung23:45:00 Uhr15.30 °C
Temperatur (Maximum / Höchstwert) und Uhrzeit der Messung10:15:00 Uhr26.40 °C
Temperatur (Minimum / Tiefstwert) und Uhrzeit der Messung03:15:0015.20 °C
Errechneter Absolutwert der Temperaturschwankungen zwischen Tmin und Tmax des Tages11.20 K
Errechnete Tagesmitteltemperatur18.92396 °C
Gesamt - Niederschlag des Tages (in flüssiger Form)3.63 Liter / m²
Luftdruck (Maximum / Höchstwert) und Zeitpunkt der Messung23:00:00 Uhr1015.90 hPa
Luftdruck (Minimum / Tiefstwert) und Zeitpunkt der Messung06:15:00 Uhr1012.50 hPa
Errechneter Absolutwert der Luftdruckschwankungen des Tages3.40 hPa
Höchste gemessene Windgeschwindigkeit und Uhrzeit der Messung23:45:00 Uhr0.00 km/h
Errechnete Windhäufigkeit in Relation zu den Messwerten des Tages0.00000 %
Niedrigste Windkühle (Windchill) und Zeitpunkt der Messung03:15:00 Uhr15.20 °C
Taupunkt (Maximum / Höchstwert) und Uhrzeit der Messung09:00:00 Uhr18.70 °C
Taupunkt (Minimum / Tiefstwert) und Uhrzeit der Messung03:15:0012.50 °C
Anzahl der automatisch eingelesenen Messwerte 96

Detaillierte Wetter- und Klima- Messwerte für den 21.07.2016 in Holzhau im Erzgebirge (630m ü.NN)
ZeitTemperaturLuftdruckRel. LuftfeuchteWindWindrichtungWindchillTaupunktNiederschlag l/m²
23:45:0015.30 °C1015.60 hPa94.00 %14.30 °C3.63
23:30:0015.30 °C1015.60 hPa94.00 %14.30 °C3.63
23:15:0015.50 °C1015.80 hPa93.00 %14.40 °C3.63
23:00:0015.60 °C1015.90 hPa93.00 %14.50 °C3.63
22:45:0015.90 °C1015.70 hPa93.00 %14.80 °C3.63
22:30:0016.40 °C1015.60 hPa93.00 %15.30 °C3.11
22:15:0016.40 °C1015.70 hPa93.00 %15.30 °C2.59
22:00:0016.50 °C1015.50 hPa93.00 %15.40 °C2.59
21:45:0016.50 °C1015.50 hPa93.00 %15.40 °C2.08
21:30:0016.60 °C1015.60 hPa92.00 %15.30 °C2.08
21:15:0016.70 °C1015.20 hPa92.00 %15.40 °C2.08
21:00:0016.80 °C1015.10 hPa92.00 %15.50 °C2.08
20:45:0017.00 °C1015.20 hPa92.00 %15.70 °C2.08
20:30:0017.10 °C1015.00 hPa92.00 %15.80 °C2.08
20:15:0017.30 °C1014.80 hPa91.00 %15.80 °C2.08
20:00:0017.30 °C1014.70 hPa91.00 %15.80 °C1.56
19:45:0017.30 °C1014.80 hPa90.00 %15.60 °C1.56
19:30:0017.30 °C1014.60 hPa90.00 %15.60 °C1.56
19:15:0017.20 °C1014.50 hPa90.00 %15.50 °C1.56
19:00:0017.20 °C1014.50 hPa89.00 %15.40 °C1.56
18:45:0017.30 °C1014.80 hPa89.00 %15.50 °C1.04
18:30:0017.60 °C1014.90 hPa88.00 %15.60 °C0.52
18:15:0017.90 °C1015.00 hPa88.00 %15.90 °C0.52
18:00:0018.10 °C1015.00 hPa87.00 %15.90 °C0.52
17:45:0018.10 °C1015.00 hPa87.00 %15.90 °C0.52
17:30:0017.90 °C1015.10 hPa86.00 %15.50 °C0.52
17:15:0017.90 °C1015.20 hPa86.00 %15.50 °C0.52
17:00:0018.20 °C1015.00 hPa85.00 %15.60 °C0.52
16:45:0018.40 °C1015.20 hPa85.00 %15.80 °C 
16:30:0018.50 °C1015.10 hPa84.00 %15.70 °C 
16:15:0018.60 °C1015.20 hPa83.00 %15.70 °C 
16:00:0019.40 °C1015.40 hPa81.00 %16.10 °C 
15:45:0020.20 °C1015.30 hPa79.00 %16.40 °C 
15:30:0020.90 °C1015.30 hPa76.00 %16.50 °C 
15:15:0021.90 °C1015.10 hPa74.00 %17.10 °C 
15:00:0022.30 °C1015.00 hPa73.00 %17.20 °C 
14:45:0022.30 °C1015.00 hPa72.00 %17.00 °C 
14:30:0022.40 °C1015.20 hPa74.00 %17.50 °C 
14:15:0022.10 °C1015.60 hPa73.00 %17.00 °C 
14:00:0022.10 °C1015.70 hPa70.00 %16.40 °C 
13:45:0022.60 °C1015.80 hPa69.00 %16.60 °C 
13:30:0023.10 °C1015.80 hPa67.00 %16.60 °C 
13:15:0023.80 °C1015.70 hPa65.00 %16.80 °C 
13:00:0023.40 °C1015.70 hPa65.00 %16.40 °C 
12:45:0023.40 °C1015.60 hPa64.00 %16.20 °C 
12:30:0024.30 °C1015.60 hPa62.00 %16.60 °C 
12:15:0024.70 °C1015.50 hPa62.00 %16.90 °C 
12:00:0024.60 °C1015.40 hPa61.00 %16.60 °C 
11:45:0024.40 °C1015.40 hPa62.00 %16.60 °C 
11:30:0024.90 °C1015.30 hPa60.00 %16.60 °C 
11:15:0025.30 °C1015.10 hPa60.00 %17.00 °C 
11:00:0025.30 °C1015.10 hPa60.00 %17.00 °C 
10:45:0025.30 °C1015.10 hPa59.00 %16.70 °C 
10:30:0026.20 °C1014.70 hPa57.00 %17.00 °C 
10:15:0026.40 °C1014.50 hPa61.00 %18.30 °C 
10:00:0026.30 °C1014.40 hPa62.00 %18.40 °C 
09:45:0026.10 °C1014.30 hPa63.00 %18.50 °C 
09:30:0025.80 °C1014.20 hPa64.00 %18.50 °C 
09:15:0025.50 °C1014.10 hPa64.00 %18.20 °C 
09:00:0024.10 °C1014.00 hPa72.00 %18.70 °C 
08:45:0023.20 °C1014.00 hPa71.00 %17.60 °C 
08:30:0022.60 °C1013.60 hPa71.00 %17.10 °C 
08:15:0021.50 °C1013.50 hPa72.00 %16.20 °C 
08:00:0022.10 °C1013.30 hPa71.00 %16.60 °C 
07:45:0020.50 °C1013.00 hPa77.00 %16.30 °C 
07:30:0018.80 °C1012.90 hPa79.00 %15.10 °C 
07:15:0017.60 °C1012.90 hPa80.00 %14.10 °C 
07:00:0016.90 °C1013.00 hPa82.00 %13.80 °C 
06:45:0016.30 °C1012.90 hPa83.00 %13.40 °C 
06:30:0015.80 °C1012.70 hPa83.00 %12.90 °C 
06:15:0015.70 °C1012.50 hPa82.00 %12.60 °C 
06:00:0015.80 °C1012.70 hPa83.00 %12.90 °C 
05:45:0015.50 °C1012.70 hPa83.00 %12.60 °C 
05:30:0015.60 °C1012.70 hPa83.00 %12.70 °C 
05:15:0015.50 °C1013.00 hPa84.00 %12.80 °C 
05:00:0015.40 °C1013.10 hPa84.00 %12.70 °C 
04:45:0015.40 °C1013.20 hPa84.00 %12.70 °C 
04:30:0015.40 °C1013.20 hPa85.00 %12.90 °C 
04:15:0015.40 °C1013.40 hPa85.00 %12.90 °C 
04:00:0015.30 °C1013.60 hPa85.00 %12.80 °C 
03:45:0015.50 °C1013.40 hPa85.00 %13.00 °C 
03:30:0015.30 °C1013.60 hPa85.00 %12.80 °C 
03:15:0015.20 °C1014.00 hPa84.00 %12.50 °C 
03:00:0015.30 °C1014.00 hPa84.00 %12.60 °C 
02:45:0015.30 °C1014.20 hPa85.00 %12.80 °C 
02:30:0015.20 °C1014.40 hPa84.00 %12.50 °C 
02:15:0015.40 °C1014.50 hPa84.00 %12.70 °C 
02:00:0015.80 °C1014.70 hPa84.00 %13.10 °C 
01:45:0015.60 °C1014.70 hPa84.00 %12.90 °C 
01:30:0015.60 °C1014.90 hPa84.00 %12.90 °C 
01:15:0015.60 °C1014.90 hPa84.00 %12.90 °C 
01:00:0015.60 °C1015.00 hPa84.00 %12.90 °C 
00:45:0015.60 °C1015.00 hPa84.00 %12.90 °C 
00:30:0015.60 °C1015.10 hPa84.00 %12.90 °C 
00:15:0015.50 °C1015.30 hPa84.00 %12.80 °C 
00:00:0015.50 °C1015.60 hPa84.00 %12.80 °C 

Permanenter Link zu dieser Seite: Wetter im Erzgebirge am 21.07.2016
Performance-Info: Die Erstellung der Seite / Statistik(en) / Tabelle(n) erforderte 5 Datenbankserver-Abfrage(n) und dauerte 92 Millisekunden. (Dieser Messwert ist von der Gesamt-Auslastung des Servers abhängig.)
Erzgebirge - Wetter | Erzgebirge - Wetter (Mobilgeräte) | Komplette Klimadatenbank